createdAt,value
2023-04-15T00:00:01.125Z,7.45
2023-04-15T00:01:01.411Z,7.44
2023-04-15T00:02:01.184Z,7.44
2023-04-15T00:03:02.179Z,7.42
2023-04-15T00:04:01.170Z,7.41
2023-04-15T00:05:01.105Z,7.40
2023-04-15T00:06:01.100Z,7.38
2023-04-15T00:07:01.125Z,7.37
2023-04-15T00:08:01.359Z,7.35
2023-04-15T00:09:01.417Z,7.31
2023-04-15T00:10:01.024Z,7.32
2023-04-15T00:11:01.016Z,7.34
2023-04-15T00:12:01.027Z,7.32
2023-04-15T00:13:01.006Z,7.34
2023-04-15T00:14:00.991Z,7.32
2023-04-15T00:15:01.342Z,7.31
2023-04-15T00:16:00.976Z,7.27
2023-04-15T00:17:01.108Z,7.26
2023-04-15T00:18:00.962Z,7.22
2023-04-15T00:19:01.099Z,7.20
2023-04-15T00:20:00.929Z,7.17
2023-04-15T00:21:00.962Z,7.15
2023-04-15T00:22:01.169Z,7.08
2023-04-15T00:23:00.883Z,7.05
2023-04-15T00:24:00.898Z,6.99
2023-04-15T00:25:00.891Z,6.97
2023-04-15T00:26:00.841Z,6.95
2023-04-15T00:27:00.984Z,6.89
2023-04-15T00:28:00.868Z,6.87
2023-04-15T00:29:01.472Z,6.84
2023-04-15T00:30:00.842Z,6.80
2023-04-15T00:31:00.889Z,6.76
2023-04-15T00:32:00.802Z,6.72
2023-04-15T00:33:00.896Z,6.73
2023-04-15T00:34:00.800Z,6.69
2023-04-15T00:35:00.765Z,6.69
2023-04-15T00:36:01.054Z,6.65
2023-04-15T00:37:00.775Z,6.65
2023-04-15T00:38:00.731Z,6.65
2023-04-15T00:39:00.983Z,6.63
2023-04-15T00:40:00.741Z,6.62
2023-04-15T00:41:00.752Z,6.62
2023-04-15T00:42:00.719Z,6.58
2023-04-15T00:43:00.984Z,6.54
2023-04-15T00:44:00.680Z,6.53
2023-04-15T00:45:00.708Z,6.48
2023-04-15T00:46:00.693Z,6.47
2023-04-15T00:47:00.664Z,6.48
2023-04-15T00:48:00.722Z,6.47
2023-04-15T00:49:00.821Z,6.41
2023-04-15T00:50:00.978Z,6.40
2023-04-15T00:51:00.666Z,6.38
2023-04-15T00:52:00.608Z,6.33
2023-04-15T00:53:00.592Z,6.30
2023-04-15T00:54:00.608Z,6.28
2023-04-15T00:55:00.563Z,6.25
2023-04-15T00:56:00.554Z,6.26
2023-04-15T00:57:00.890Z,6.26
2023-04-15T00:58:00.547Z,6.22
2023-04-15T00:59:00.745Z,6.21
2023-04-15T01:00:00.535Z,6.18
2023-04-15T01:01:00.521Z,6.18
2023-04-15T01:02:00.586Z,6.16
2023-04-15T01:03:00.763Z,6.13
2023-04-15T01:04:00.844Z,6.11
2023-04-15T01:05:00.473Z,6.09
2023-04-15T01:06:03.430Z,6.07
2023-04-15T01:07:00.453Z,6.06
2023-04-15T01:08:00.472Z,6.04
2023-04-15T01:09:01.010Z,6.04
2023-04-15T01:10:00.401Z,6.09
2023-04-15T01:11:00.682Z,6.06
2023-04-15T01:12:00.380Z,6.09
2023-04-15T01:13:00.384Z,6.09
2023-04-15T01:14:00.357Z,6.06
2023-04-15T01:15:00.393Z,6.03
2023-04-15T01:16:00.413Z,6.01
2023-04-15T01:17:00.340Z,6.00
2023-04-15T01:18:00.646Z,5.95
2023-04-15T01:19:00.611Z,5.95
2023-04-15T01:20:00.361Z,5.95
2023-04-15T01:21:00.333Z,5.93
2023-04-15T01:22:00.290Z,5.95
2023-04-15T01:23:00.279Z,5.95
2023-04-15T01:24:00.265Z,5.95
2023-04-15T01:25:00.586Z,5.93
2023-04-15T01:26:00.237Z,5.93
2023-04-15T01:27:00.520Z,5.92
2023-04-15T01:28:00.221Z,5.92
2023-04-15T01:29:00.442Z,5.91
2023-04-15T01:30:00.188Z,5.88
2023-04-15T01:31:00.203Z,5.86
2023-04-15T01:32:00.444Z,5.85
2023-04-15T01:33:00.278Z,5.85
2023-04-15T01:34:00.219Z,5.78
2023-04-15T01:35:00.190Z,5.78
2023-04-15T01:36:00.131Z,5.78
2023-04-15T01:37:00.125Z,5.77
2023-04-15T01:38:00.143Z,5.78
2023-04-15T01:39:00.353Z,5.77
2023-04-15T01:40:00.099Z,5.74
2023-04-15T01:41:00.096Z,5.73
2023-04-15T01:42:00.057Z,5.71
2023-04-15T01:43:00.098Z,5.68
2023-04-15T01:44:00.325Z,5.68
2023-04-15T01:45:00.115Z,5.67
2023-04-15T01:46:00.032Z,5.67
2023-04-15T01:47:00.046Z,5.66
2023-04-15T01:48:00.050Z,5.66
2023-04-15T01:49:00.237Z,5.64
2023-04-15T01:49:59.972Z,5.66
2023-04-15T01:51:00.029Z,5.60
2023-04-15T01:51:59.977Z,5.63
2023-04-15T01:52:59.965Z,5.63
2023-04-15T01:53:59.945Z,5.63
2023-04-15T01:54:59.934Z,5.60
2023-04-15T01:56:00.203Z,5.59
2023-04-15T01:57:00.023Z,5.59
2023-04-15T01:57:59.892Z,5.60
2023-04-15T01:59:00.053Z,5.60
2023-04-15T01:59:59.895Z,5.59
2023-04-15T02:00:59.953Z,5.57
2023-04-15T02:02:00.022Z,5.56
2023-04-15T02:03:00.386Z,5.55
2023-04-15T02:03:59.880Z,5.50
2023-04-15T02:04:59.846Z,5.49
2023-04-15T02:05:59.820Z,5.50
2023-04-15T02:07:00.522Z,5.49
2023-04-15T02:07:59.800Z,5.48
2023-04-15T02:09:00.202Z,5.45
2023-04-15T02:10:00.096Z,5.43
2023-04-15T02:10:59.774Z,5.43
2023-04-15T02:11:59.757Z,5.41
2023-04-15T02:12:59.745Z,5.45
2023-04-15T02:13:59.751Z,5.41
2023-04-15T02:14:59.791Z,5.40
2023-04-15T02:15:59.742Z,5.40
2023-04-15T02:17:00.063Z,5.37
2023-04-15T02:17:59.706Z,5.35
2023-04-15T02:19:00.022Z,5.34
2023-04-15T02:19:59.676Z,5.31
2023-04-15T02:20:59.699Z,5.31
2023-04-15T02:21:59.654Z,5.28
2023-04-15T02:22:59.647Z,5.25
2023-04-15T02:23:59.907Z,5.25
2023-04-15T02:24:59.668Z,5.25
2023-04-15T02:25:59.613Z,5.22
2023-04-15T02:26:59.664Z,5.23
2023-04-15T02:27:59.592Z,5.25
2023-04-15T02:28:59.843Z,5.23
2023-04-15T02:29:59.601Z,5.23
2023-04-15T02:30:59.881Z,5.23
2023-04-15T02:31:59.571Z,5.22
2023-04-15T02:32:59.593Z,5.23
2023-04-15T02:33:59.562Z,5.20
2023-04-15T02:34:59.539Z,5.22
2023-04-15T02:35:59.515Z,5.19
2023-04-15T02:36:59.553Z,5.17
2023-04-15T02:37:59.819Z,5.17
2023-04-15T02:38:59.757Z,5.13
2023-04-15T02:39:59.492Z,5.14
2023-04-15T02:40:59.552Z,5.12
2023-04-15T02:41:59.457Z,5.13
2023-04-15T02:42:59.434Z,5.10
2023-04-15T02:43:59.438Z,5.10
2023-04-15T02:44:59.740Z,5.09
2023-04-15T02:45:59.438Z,5.07
2023-04-15T02:46:59.399Z,5.07
2023-04-15T02:47:59.481Z,5.04
2023-04-15T02:48:59.714Z,5.05
2023-04-15T02:49:59.380Z,5.04
2023-04-15T02:50:59.561Z,5.05
2023-04-15T02:51:59.655Z,5.07
2023-04-15T02:52:59.340Z,5.07
2023-04-15T02:53:59.337Z,5.07
2023-04-15T02:54:59.319Z,5.10
2023-04-15T02:55:59.345Z,5.05
2023-04-15T02:56:59.339Z,5.04
2023-04-15T02:57:59.280Z,5.04
2023-04-15T02:58:59.680Z,5.07
2023-04-15T02:59:59.283Z,5.05
2023-04-15T03:00:59.286Z,5.04
2023-04-15T03:01:59.254Z,5.02
2023-04-15T03:02:59.460Z,5.04
2023-04-15T03:03:59.311Z,5.04
2023-04-15T03:04:59.195Z,5.04
2023-04-15T03:05:59.487Z,5.04
2023-04-15T03:06:59.185Z,5.04
2023-04-15T03:07:59.184Z,5.04
2023-04-15T03:08:59.400Z,5.05
2023-04-15T03:09:59.150Z,5.05
2023-04-15T03:10:59.165Z,5.09
2023-04-15T03:11:59.145Z,5.10
2023-04-15T03:12:59.424Z,5.12
2023-04-15T03:13:59.109Z,5.12
2023-04-15T03:14:59.149Z,5.12
2023-04-15T03:15:59.119Z,5.10
2023-04-15T03:16:59.084Z,5.12
2023-04-15T03:17:59.108Z,5.07
2023-04-15T03:18:59.205Z,5.05
2023-04-15T03:19:59.383Z,5.05
2023-04-15T03:20:59.101Z,5.07
2023-04-15T03:21:59.051Z,5.04
2023-04-15T03:22:59.014Z,5.05
2023-04-15T03:23:59.035Z,5.05
2023-04-15T03:24:59.050Z,5.05
2023-04-15T03:25:59.006Z,5.04
2023-04-15T03:26:59.324Z,5.02
2023-04-15T03:27:59.012Z,5.01
2023-04-15T03:28:59.034Z,4.99
2023-04-15T03:29:58.973Z,4.98
2023-04-15T03:30:59.050Z,4.95
2023-04-15T03:31:58.942Z,4.95
2023-04-15T03:32:59.006Z,4.92
2023-04-15T03:33:59.232Z,4.92
2023-04-15T03:34:58.897Z,4.91
2023-04-15T03:35:58.917Z,4.91
2023-04-15T03:36:58.908Z,4.88
2023-04-15T03:37:58.889Z,4.86
2023-04-15T03:38:59.026Z,4.84
2023-04-15T03:39:58.875Z,4.83
2023-04-15T03:40:59.137Z,4.83
2023-04-15T03:41:58.863Z,4.80
2023-04-15T03:42:58.832Z,4.79
2023-04-15T03:43:58.836Z,4.77
2023-04-15T03:44:58.848Z,4.77
2023-04-15T03:46:00.206Z,4.77
2023-04-15T03:46:58.764Z,4.76
2023-04-15T03:48:11.520Z,4.76
2023-04-15T03:48:58.820Z,4.75
2023-04-15T03:49:58.751Z,4.79
2023-04-15T03:50:58.769Z,4.79
2023-04-15T03:51:58.735Z,4.79
2023-04-15T03:52:58.714Z,4.80
2023-04-15T03:53:58.701Z,4.83
2023-04-15T03:54:58.991Z,4.83
2023-04-15T03:55:58.692Z,4.79
2023-04-15T03:56:58.721Z,4.79
2023-04-15T03:57:58.691Z,4.79
2023-04-15T03:58:58.988Z,4.77
2023-04-15T03:59:58.643Z,4.77
2023-04-15T04:00:58.641Z,4.76
2023-04-15T04:01:59.044Z,4.76
2023-04-15T04:02:58.855Z,4.76
2023-04-15T04:03:58.733Z,4.73
2023-04-15T04:04:58.646Z,4.75
2023-04-15T04:05:58.590Z,4.76
2023-04-15T04:06:58.571Z,4.75
2023-04-15T04:07:58.575Z,4.75
2023-04-15T04:08:58.955Z,4.72
2023-04-15T04:09:58.546Z,4.70
2023-04-15T04:10:58.533Z,4.70
2023-04-15T04:11:58.524Z,4.67
2023-04-15T04:12:58.534Z,4.64
2023-04-15T04:13:58.519Z,4.62
2023-04-15T04:14:58.549Z,4.64
2023-04-15T04:15:58.879Z,4.64
2023-04-15T04:16:58.475Z,4.59
2023-04-15T04:17:58.553Z,4.59
2023-04-15T04:18:58.463Z,4.59
2023-04-15T04:19:58.452Z,4.57
2023-04-15T04:20:58.475Z,4.57
2023-04-15T04:21:58.404Z,4.59
2023-04-15T04:22:58.680Z,4.57
2023-04-15T04:23:58.498Z,4.57
2023-04-15T04:24:58.393Z,4.55
2023-04-15T04:25:58.372Z,4.55
2023-04-15T04:26:58.420Z,4.55
2023-04-15T04:27:58.362Z,4.57
2023-04-15T04:28:58.434Z,4.55
2023-04-15T04:29:58.601Z,4.57
2023-04-15T04:30:58.329Z,4.58
2023-04-15T04:31:58.339Z,4.57
2023-04-15T04:32:58.366Z,4.59
2023-04-15T04:33:58.303Z,4.62
2023-04-15T04:34:58.295Z,4.62
2023-04-15T04:35:58.258Z,4.62
2023-04-15T04:36:58.533Z,4.64
2023-04-15T04:37:58.242Z,4.62
2023-04-15T04:38:58.340Z,4.64
2023-04-15T04:39:58.226Z,4.64
2023-04-15T04:40:58.215Z,4.67
2023-04-15T04:41:58.210Z,4.69
2023-04-15T04:42:58.191Z,4.70
2023-04-15T04:43:58.547Z,4.70
2023-04-15T04:44:58.233Z,4.73
2023-04-15T04:45:58.188Z,4.72
2023-04-15T04:46:58.136Z,4.73
2023-04-15T04:47:58.179Z,4.75
2023-04-15T04:48:58.121Z,4.75
2023-04-15T04:49:58.117Z,4.76
2023-04-15T04:50:58.576Z,4.76
2023-04-15T04:51:58.205Z,4.79
2023-04-15T04:52:58.078Z,4.83
2023-04-15T04:53:58.135Z,4.86
2023-04-15T04:54:58.121Z,4.88
2023-04-15T04:55:58.128Z,4.91
2023-04-15T04:56:58.195Z,4.92
2023-04-15T04:57:58.449Z,4.95
2023-04-15T04:58:58.207Z,4.99
2023-04-15T04:59:58.111Z,5.01
2023-04-15T05:00:58.136Z,5.04
2023-04-15T05:01:58.143Z,5.07
2023-04-15T05:02:58.122Z,5.07
2023-04-15T05:03:58.049Z,5.07
2023-04-15T05:04:58.273Z,5.10
2023-04-15T05:05:57.971Z,5.12
2023-04-15T05:06:57.955Z,5.13
2023-04-15T05:07:57.920Z,5.14
2023-04-15T05:08:57.954Z,5.14
2023-04-15T05:09:57.906Z,5.16
2023-04-15T05:10:57.907Z,5.16
2023-04-15T05:11:58.189Z,5.19
2023-04-15T05:12:57.893Z,5.20
2023-04-15T05:13:57.892Z,5.23
2023-04-15T05:14:57.917Z,5.28
2023-04-15T05:15:57.884Z,5.30
2023-04-15T05:16:57.847Z,5.31
2023-04-15T05:17:57.884Z,5.35
2023-04-15T05:18:58.127Z,5.37
2023-04-15T05:19:57.809Z,5.38
2023-04-15T05:20:57.841Z,5.38
2023-04-15T05:21:57.822Z,5.41
2023-04-15T05:22:57.814Z,5.43
2023-04-15T05:23:57.766Z,5.45
2023-04-15T05:24:57.822Z,5.46
2023-04-15T05:25:58.084Z,5.49
2023-04-15T05:26:57.819Z,5.50
2023-04-15T05:27:57.763Z,5.52
2023-04-15T05:28:57.727Z,5.55
2023-04-15T05:29:57.774Z,5.60
2023-04-15T05:30:57.750Z,5.64
2023-04-15T05:31:57.721Z,5.66
2023-04-15T05:32:57.809Z,5.68
2023-04-15T05:33:57.717Z,5.73
2023-04-15T05:34:57.697Z,5.74
2023-04-15T05:35:57.666Z,5.77
2023-04-15T05:36:57.659Z,5.78
2023-04-15T05:37:57.629Z,5.82
2023-04-15T05:38:57.938Z,5.85
2023-04-15T05:39:57.675Z,5.86
2023-04-15T05:40:57.598Z,5.89
2023-04-15T05:41:57.648Z,5.92
2023-04-15T05:42:57.603Z,5.93
2023-04-15T05:43:57.601Z,5.98
2023-04-15T05:44:57.661Z,6.00
2023-04-15T05:45:57.602Z,6.03
2023-04-15T05:46:57.535Z,6.04
2023-04-15T05:47:57.642Z,6.07
2023-04-15T05:48:57.506Z,6.06
2023-04-15T05:49:57.532Z,6.07
2023-04-15T05:50:57.833Z,6.09
2023-04-15T05:51:57.509Z,6.13
2023-04-15T05:52:57.489Z,6.14
2023-04-15T05:53:57.503Z,6.18
2023-04-15T05:54:57.453Z,6.18
2023-04-15T05:55:57.465Z,6.18
2023-04-15T05:56:57.483Z,6.22
2023-04-15T05:57:57.431Z,6.25
2023-04-15T05:58:57.407Z,6.28
2023-04-15T05:59:57.450Z,6.29
2023-04-15T06:00:57.416Z,6.32
2023-04-15T06:01:57.445Z,6.33
2023-04-15T06:02:57.891Z,6.35
2023-04-15T06:03:57.553Z,6.35
2023-04-15T06:04:57.408Z,6.36
2023-04-15T06:05:57.334Z,6.38
2023-04-15T06:06:57.332Z,6.40
2023-04-15T06:07:57.357Z,6.40
2023-04-15T06:08:57.363Z,6.38
2023-04-15T06:09:57.616Z,6.40
2023-04-15T06:10:57.288Z,6.43
2023-04-15T06:11:57.312Z,6.41
2023-04-15T06:12:57.303Z,6.44
2023-04-15T06:13:57.287Z,6.47
2023-04-15T06:14:58.975Z,6.47
2023-04-15T06:15:57.310Z,6.50
2023-04-15T06:16:57.529Z,6.50
2023-04-15T06:17:57.271Z,6.50
2023-04-15T06:18:57.225Z,6.53
2023-04-15T06:19:57.221Z,6.51
2023-04-15T06:20:57.232Z,6.54
2023-04-15T06:21:57.182Z,6.56
2023-04-15T06:22:57.180Z,6.59
2023-04-15T06:23:57.477Z,6.59
2023-04-15T06:24:57.164Z,6.59
2023-04-15T06:25:57.126Z,6.59
2023-04-15T06:26:57.221Z,6.58
2023-04-15T06:27:57.131Z,6.56
2023-04-15T06:28:57.119Z,6.58
2023-04-15T06:29:57.100Z,6.59
2023-04-15T06:30:57.388Z,6.61
2023-04-15T06:31:57.165Z,6.65
2023-04-15T06:32:57.180Z,6.68
2023-04-15T06:33:57.070Z,6.73
2023-04-15T06:34:57.081Z,6.79
2023-04-15T06:35:57.049Z,6.81
2023-04-15T06:36:57.045Z,6.86
2023-04-15T06:37:57.352Z,6.86
2023-04-15T06:38:57.086Z,6.90
2023-04-15T06:39:57.011Z,6.91
2023-04-15T06:40:56.988Z,6.91
2023-04-15T06:41:57.017Z,6.91
2023-04-15T06:42:56.986Z,6.90
2023-04-15T06:43:56.984Z,6.86
2023-04-15T06:44:57.307Z,6.87
2023-04-15T06:45:57.014Z,6.91
2023-04-15T06:46:56.954Z,6.90
2023-04-15T06:47:57.009Z,6.94
2023-04-15T06:48:56.934Z,6.94
2023-04-15T06:49:56.908Z,6.94
2023-04-15T06:50:56.954Z,6.95
2023-04-15T06:51:57.192Z,6.98
2023-04-15T06:52:56.858Z,7.01
2023-04-15T06:53:56.897Z,7.04
2023-04-15T06:54:56.841Z,7.08
2023-04-15T06:55:56.823Z,7.09
2023-04-15T06:56:56.861Z,7.16
2023-04-15T06:57:56.837Z,7.17
2023-04-15T06:58:56.806Z,7.19
2023-04-15T06:59:56.789Z,7.19
2023-04-15T07:00:56.806Z,7.22
2023-04-15T07:01:56.794Z,7.23
2023-04-15T07:02:56.828Z,7.26
2023-04-15T07:03:56.825Z,7.29
2023-04-15T07:04:57.024Z,7.31
2023-04-15T07:05:56.721Z,7.38
2023-04-15T07:06:56.719Z,7.40
2023-04-15T07:07:56.708Z,7.41
2023-04-15T07:08:56.743Z,7.47
2023-04-15T07:09:56.713Z,7.55
2023-04-15T07:10:56.679Z,7.62
2023-04-15T07:11:56.694Z,7.67
2023-04-15T07:12:56.695Z,7.74
2023-04-15T07:13:56.680Z,7.81
2023-04-15T07:14:56.745Z,7.84
2023-04-15T07:15:56.621Z,7.89
2023-04-15T07:16:56.720Z,7.94
2023-04-15T07:17:56.677Z,7.97
2023-04-15T07:18:56.617Z,7.97
2023-04-15T07:19:56.579Z,8.00
2023-04-15T07:20:56.662Z,8.07
2023-04-15T07:21:56.584Z,8.10
2023-04-15T07:22:56.543Z,8.18
2023-04-15T07:23:56.531Z,8.18
2023-04-15T07:24:56.572Z,8.22
2023-04-15T07:25:56.545Z,8.25
2023-04-15T07:26:58.499Z,8.28
2023-04-15T07:27:56.553Z,8.25
2023-04-15T07:28:56.764Z,8.28
2023-04-15T07:29:56.497Z,8.21
2023-04-15T07:30:56.570Z,8.20
2023-04-15T07:31:56.455Z,8.15
2023-04-15T07:32:56.553Z,8.20
2023-04-15T07:33:56.440Z,8.26
2023-04-15T07:34:56.445Z,8.26
2023-04-15T07:35:56.410Z,8.33
2023-04-15T07:36:56.414Z,8.36
2023-04-15T07:37:56.402Z,8.35
2023-04-15T07:38:56.421Z,8.35
2023-04-15T07:39:56.401Z,8.40
2023-04-15T07:40:56.673Z,8.47
2023-04-15T07:41:56.366Z,8.53
2023-04-15T07:42:56.438Z,8.62
2023-04-15T07:43:56.344Z,8.63
2023-04-15T07:44:56.425Z,8.69
2023-04-15T07:45:56.362Z,8.75
2023-04-15T07:46:56.312Z,8.76
2023-04-15T07:47:56.332Z,8.86
2023-04-15T07:48:56.345Z,8.87
2023-04-15T07:49:56.290Z,8.88
2023-04-15T07:50:56.336Z,8.93
2023-04-15T07:51:56.271Z,8.90
2023-04-15T07:52:56.268Z,8.90
2023-04-15T07:53:57.441Z,8.73
2023-04-15T07:54:56.235Z,8.72
2023-04-15T07:55:56.453Z,8.71
2023-04-15T07:56:56.617Z,8.72
2023-04-15T07:57:56.224Z,8.81
2023-04-15T07:58:56.209Z,8.86
2023-04-15T07:59:56.223Z,8.87
2023-04-15T08:00:56.186Z,8.87
2023-04-15T08:01:56.248Z,8.76
2023-04-15T08:02:56.427Z,8.76
2023-04-15T08:03:56.323Z,8.78
2023-04-15T08:04:56.187Z,8.75
2023-04-15T08:05:56.165Z,8.78
2023-04-15T08:06:56.448Z,8.84
2023-04-15T08:07:56.118Z,8.83
2023-04-15T08:08:56.114Z,8.81
2023-04-15T08:09:56.096Z,8.78
2023-04-15T08:10:56.133Z,8.81
2023-04-15T08:11:56.095Z,8.83
2023-04-15T08:12:56.072Z,8.81
2023-04-15T08:13:56.063Z,8.72
2023-04-15T08:14:56.105Z,8.60
2023-04-15T08:15:56.105Z,8.57
2023-04-15T08:16:56.129Z,8.55
2023-04-15T08:17:56.087Z,8.54
2023-04-15T08:18:56.292Z,8.57
2023-04-15T08:19:56.019Z,8.62
2023-04-15T08:20:56.022Z,8.65
2023-04-15T08:21:55.991Z,8.69
2023-04-15T08:22:56.043Z,8.76
2023-04-15T08:23:55.935Z,8.78
2023-04-15T08:24:56.012Z,8.81
2023-04-15T08:25:55.923Z,8.81
2023-04-15T08:26:56.273Z,8.79
2023-04-15T08:27:55.939Z,8.78
2023-04-15T08:28:55.930Z,8.73
2023-04-15T08:29:55.882Z,8.72
2023-04-15T08:30:56.156Z,8.72
2023-04-15T08:31:55.913Z,8.75
2023-04-15T08:32:56.047Z,8.79
2023-04-15T08:33:55.834Z,8.71
2023-04-15T08:34:55.846Z,8.68
2023-04-15T08:35:55.863Z,8.65
2023-04-15T08:36:55.822Z,8.62
2023-04-15T08:37:56.089Z,8.60
2023-04-15T08:38:55.870Z,8.62
2023-04-15T08:39:55.830Z,8.68
2023-04-15T08:40:55.835Z,8.66
2023-04-15T08:41:55.782Z,8.63
2023-04-15T08:42:55.820Z,8.68
2023-04-15T08:43:55.719Z,8.65
2023-04-15T08:44:56.114Z,8.66
2023-04-15T08:45:55.797Z,8.71
2023-04-15T08:46:55.747Z,8.68
2023-04-15T08:47:55.768Z,8.68
2023-04-15T08:48:55.739Z,8.72
2023-04-15T08:49:55.716Z,8.73
2023-04-15T08:50:55.728Z,8.76
2023-04-15T08:51:55.928Z,8.83
2023-04-15T08:52:55.650Z,8.84
2023-04-15T08:53:55.609Z,8.88
2023-04-15T08:54:55.634Z,8.93
2023-04-15T08:55:55.600Z,8.99
2023-04-15T08:56:55.721Z,9.02
2023-04-15T08:57:55.669Z,9.04
2023-04-15T08:58:56.025Z,9.09
2023-04-15T08:59:55.612Z,9.09
2023-04-15T09:00:55.753Z,9.12
2023-04-15T09:01:55.670Z,9.13
2023-04-15T09:02:55.626Z,9.18
2023-04-15T09:03:55.767Z,9.20
2023-04-15T09:04:55.522Z,9.20
2023-04-15T09:05:55.828Z,9.16
2023-04-15T09:06:55.556Z,9.10
2023-04-15T09:07:55.556Z,9.09
2023-04-15T09:08:55.612Z,9.05
2023-04-15T09:09:55.561Z,9.10
2023-04-15T09:10:55.508Z,9.09
2023-04-15T09:11:55.504Z,9.10
2023-04-15T09:12:55.769Z,9.16
2023-04-15T09:13:55.473Z,9.24
2023-04-15T09:14:55.563Z,9.30
2023-04-15T09:15:55.402Z,9.38
2023-04-15T09:16:55.489Z,9.43
2023-04-15T09:17:55.606Z,9.48
2023-04-15T09:18:55.408Z,9.43
2023-04-15T09:19:55.693Z,9.45
2023-04-15T09:20:55.558Z,9.42
2023-04-15T09:21:57.985Z,9.42
2023-04-15T09:22:55.370Z,9.35
2023-04-15T09:23:55.381Z,9.35
2023-04-15T09:24:55.369Z,9.32
2023-04-15T09:25:55.427Z,9.24
2023-04-15T09:26:55.977Z,9.23
2023-04-15T09:27:55.372Z,9.24
2023-04-15T09:28:55.322Z,9.25
2023-04-15T09:29:55.310Z,9.30
2023-04-15T09:30:55.339Z,9.32
2023-04-15T09:31:55.298Z,9.28
2023-04-15T09:32:55.488Z,9.25
2023-04-15T09:33:55.494Z,9.21
2023-04-15T09:34:55.230Z,9.18
2023-04-15T09:35:55.249Z,9.20
2023-04-15T09:36:55.264Z,9.20
2023-04-15T09:37:55.219Z,9.18
2023-04-15T09:38:55.272Z,9.21
2023-04-15T09:39:55.173Z,9.21
2023-04-15T09:40:55.468Z,9.21
2023-04-15T09:41:55.188Z,9.18
2023-04-15T09:42:55.123Z,9.16
2023-04-15T09:43:55.120Z,9.18
2023-04-15T09:44:55.217Z,9.21
2023-04-15T09:45:55.214Z,9.27
2023-04-15T09:46:55.129Z,9.30
2023-04-15T09:47:56.897Z,9.31
2023-04-15T09:48:55.146Z,9.34
2023-04-15T09:49:55.197Z,9.30
2023-04-15T09:50:55.198Z,9.24
2023-04-15T09:52:04.967Z,9.25
2023-04-15T09:52:55.129Z,9.28
2023-04-15T09:53:55.254Z,9.31
2023-04-15T09:54:55.355Z,9.32
2023-04-15T09:55:55.045Z,9.35
2023-04-15T09:56:55.044Z,9.39
2023-04-15T09:57:55.031Z,9.35
2023-04-15T09:58:54.992Z,9.34
2023-04-15T09:59:55.003Z,9.34
2023-04-15T10:00:55.039Z,9.34
2023-04-15T10:01:55.469Z,9.38
2023-04-15T10:02:55.113Z,9.39
2023-04-15T10:03:55.179Z,9.42
2023-04-15T10:04:54.916Z,9.45
2023-04-15T10:05:54.991Z,9.45
2023-04-15T10:06:54.940Z,9.42
2023-04-15T10:07:54.958Z,9.43
2023-04-15T10:08:55.302Z,9.43
2023-04-15T10:09:54.975Z,9.45
2023-04-15T10:10:55.031Z,9.46
2023-04-15T10:11:54.936Z,9.46
2023-04-15T10:12:54.935Z,9.49
2023-04-15T10:13:54.862Z,9.49
2023-04-15T10:14:54.953Z,9.52
2023-04-15T10:15:55.137Z,9.52
2023-04-15T10:16:54.867Z,9.57
2023-04-15T10:17:54.839Z,9.61
2023-04-15T10:18:54.826Z,9.63
2023-04-15T10:19:54.796Z,9.61
2023-04-15T10:20:54.841Z,9.58
2023-04-15T10:21:54.751Z,9.56
2023-04-15T10:22:55.018Z,9.57
2023-04-15T10:23:54.724Z,9.58
2023-04-15T10:24:54.736Z,9.60
2023-04-15T10:25:54.727Z,9.63
2023-04-15T10:26:54.868Z,9.66
2023-04-15T10:27:54.693Z,9.64
2023-04-15T10:28:54.726Z,9.66
2023-04-15T10:29:54.970Z,9.67
2023-04-15T10:30:54.775Z,9.70
2023-04-15T10:31:54.636Z,9.70
2023-04-15T10:32:54.743Z,9.67
2023-04-15T10:33:54.620Z,9.67
2023-04-15T10:34:54.867Z,9.71
2023-04-15T10:35:54.620Z,9.78
2023-04-15T10:36:54.945Z,9.82
2023-04-15T10:37:54.606Z,9.83
2023-04-15T10:38:54.689Z,9.82
2023-04-15T10:39:54.615Z,9.86
2023-04-15T10:40:54.538Z,9.89
2023-04-15T10:41:54.567Z,9.96
2023-04-15T10:42:54.650Z,9.94
2023-04-15T10:43:54.982Z,9.96
2023-04-15T10:44:54.852Z,9.96
2023-04-15T10:45:54.730Z,9.96
2023-04-15T10:46:54.626Z,9.96
2023-04-15T10:47:54.545Z,9.94
2023-04-15T10:48:54.478Z,9.97
2023-04-15T10:49:54.472Z,10.01
2023-04-15T10:50:54.794Z,10.01
2023-04-15T10:51:54.465Z,10.00
2023-04-15T10:52:54.495Z,10.03
2023-04-15T10:53:54.513Z,9.96
2023-04-15T10:54:54.449Z,10.00
2023-04-15T10:55:54.384Z,10.03
2023-04-15T10:56:54.951Z,10.09
2023-04-15T10:57:54.697Z,10.12
2023-04-15T10:58:54.426Z,10.17
2023-04-15T10:59:54.411Z,10.24
2023-04-15T11:00:54.324Z,10.30
2023-04-15T11:01:54.511Z,10.36
2023-04-15T11:02:54.608Z,10.40
2023-04-15T11:03:54.488Z,10.47
2023-04-15T11:04:54.685Z,10.51
2023-04-15T11:05:54.298Z,10.51
2023-04-15T11:06:54.395Z,10.51
2023-04-15T11:07:54.300Z,10.51
2023-04-15T11:08:54.345Z,10.51
2023-04-15T11:09:54.275Z,10.47
2023-04-15T11:10:54.327Z,10.55
2023-04-15T11:11:54.522Z,10.62
2023-04-15T11:12:54.292Z,10.65
2023-04-15T11:13:54.220Z,10.63
2023-04-15T11:14:54.402Z,10.62
2023-04-15T11:15:54.239Z,10.65
2023-04-15T11:16:54.270Z,10.59
2023-04-15T11:17:54.318Z,10.56
2023-04-15T11:18:54.429Z,10.47
2023-04-15T11:19:54.194Z,10.39
2023-04-15T11:20:54.193Z,10.36
2023-04-15T11:21:54.209Z,10.36
2023-04-15T11:23:14.705Z,10.42
2023-04-15T11:23:54.141Z,10.43
2023-04-15T11:24:54.094Z,10.51
2023-04-15T11:25:54.395Z,10.51
2023-04-15T11:26:54.214Z,10.52
2023-04-15T11:27:54.121Z,10.51
2023-04-15T11:28:54.062Z,10.39
2023-04-15T11:29:53.986Z,10.32
2023-04-15T11:30:54.063Z,10.22
2023-04-15T11:31:54.060Z,10.24
2023-04-15T11:32:54.465Z,10.25
2023-04-15T11:33:54.084Z,10.25
2023-04-15T11:34:54.036Z,10.21
2023-04-15T11:35:54.129Z,10.15
2023-04-15T11:36:54.076Z,10.12
2023-04-15T11:37:54.046Z,10.12
2023-04-15T11:38:53.998Z,10.10
2023-04-15T11:39:54.277Z,10.10
2023-04-15T11:40:53.927Z,10.12
2023-04-15T11:41:53.987Z,10.15
2023-04-15T11:42:53.941Z,10.17
2023-04-15T11:43:53.921Z,10.18
2023-04-15T11:44:54.011Z,10.19
2023-04-15T11:45:54.025Z,10.21
2023-04-15T11:46:54.206Z,10.24
2023-04-15T11:47:54.055Z,10.21
2023-04-15T11:48:53.884Z,10.19
2023-04-15T11:49:53.848Z,10.19
2023-04-15T11:50:54.040Z,10.17
2023-04-15T11:51:53.825Z,10.14
2023-04-15T11:52:53.804Z,10.10
2023-04-15T11:53:53.804Z,10.07
2023-04-15T11:54:53.743Z,10.03
2023-04-15T11:55:53.840Z,10.00
2023-04-15T11:56:53.848Z,10.00
2023-04-15T11:57:53.815Z,10.04
2023-04-15T11:58:53.738Z,10.04
2023-04-15T11:59:54.088Z,10.06
2023-04-15T12:00:53.764Z,10.09
2023-04-15T12:01:53.737Z,10.10
2023-04-15T12:02:53.862Z,10.15
2023-04-15T12:03:53.873Z,10.19
2023-04-15T12:04:53.870Z,10.22
2023-04-15T12:05:53.670Z,10.22
2023-04-15T12:06:53.724Z,10.22
2023-04-15T12:07:53.665Z,10.21
2023-04-15T12:08:53.793Z,10.19
2023-04-15T12:09:53.717Z,10.22
2023-04-15T12:10:53.692Z,10.25
2023-04-15T12:11:53.953Z,10.33
2023-04-15T12:12:53.597Z,10.39
2023-04-15T12:13:53.577Z,10.39
2023-04-15T12:14:53.642Z,10.40
2023-04-15T12:15:53.688Z,10.40
2023-04-15T12:16:53.526Z,10.36
2023-04-15T12:17:53.669Z,10.33
2023-04-15T12:18:53.536Z,10.25
2023-04-15T12:19:53.594Z,10.22
2023-04-15T12:20:53.566Z,10.15
2023-04-15T12:21:53.623Z,10.12
2023-04-15T12:22:53.653Z,10.14
2023-04-15T12:23:53.964Z,10.18
2023-04-15T12:24:53.584Z,10.19
2023-04-15T12:25:53.607Z,10.21
2023-04-15T12:26:53.662Z,10.22
2023-04-15T12:27:53.522Z,10.26
2023-04-15T12:28:53.453Z,10.26
2023-04-15T12:29:53.420Z,10.22
2023-04-15T12:30:53.816Z,10.21
2023-04-15T12:31:53.401Z,10.24
2023-04-15T12:32:53.456Z,10.21
2023-04-15T12:33:53.430Z,10.19
2023-04-15T12:34:53.357Z,10.17
2023-04-15T12:35:53.359Z,10.18
2023-04-15T12:36:53.342Z,10.17
2023-04-15T12:37:53.674Z,10.15
2023-04-15T12:38:53.440Z,10.14
2023-04-15T12:39:53.387Z,10.17
2023-04-15T12:40:53.358Z,10.18
2023-04-15T12:41:53.381Z,10.18
2023-04-15T12:42:53.303Z,10.18
2023-04-15T12:43:53.294Z,10.22
2023-04-15T12:44:53.635Z,10.26
2023-04-15T12:45:53.317Z,10.28
2023-04-15T12:46:53.374Z,10.26
2023-04-15T12:47:53.284Z,10.19
2023-04-15T12:48:53.240Z,10.18
2023-04-15T12:49:53.248Z,10.15
2023-04-15T12:50:53.292Z,10.14
2023-04-15T12:51:53.296Z,10.18
2023-04-15T12:52:53.283Z,10.19
2023-04-15T12:53:53.266Z,10.18
2023-04-15T12:54:53.236Z,10.15
2023-04-15T12:55:53.205Z,10.18
2023-04-15T12:56:53.203Z,10.18
2023-04-15T12:57:53.492Z,10.17
2023-04-15T12:58:53.130Z,10.17
2023-04-15T12:59:53.118Z,10.17
2023-04-15T13:00:53.169Z,10.18
2023-04-15T13:01:53.229Z,10.17
2023-04-15T13:02:53.264Z,10.18
2023-04-15T13:03:53.104Z,10.15
2023-04-15T13:04:53.533Z,10.17
2023-04-15T13:05:53.186Z,10.17
2023-04-15T13:06:53.091Z,10.14
2023-04-15T13:07:53.130Z,10.15
2023-04-15T13:08:58.253Z,10.15
2023-04-15T13:09:53.068Z,10.14
2023-04-15T13:10:53.035Z,10.12
2023-04-15T13:11:53.341Z,10.09
2023-04-15T13:12:52.941Z,10.06